Messages - map view · info · telemetry · weather · raw · status · beacons · messages · bulletins · browse · moving · my account
Callsign:
Show:

Loading message packets...

APRS messages are stored for 14 days. It is possible to search using wildcards (*?) after a prefix.

2019-04-22 10:40:12 EDT: VK2GJ-2>VK2GJ-7: Directs=VK2RHR-1 VK2AMW-1
2019-04-22 10:40:16 EDT: OH6DL-11>ANSRVR: CQ RPRNET www.robust-packet.net
2019-04-22 10:40:16 EDT: OH6DL-11>DF8LS-10: N:RPRNET www.robust-packet.net
2019-04-22 10:40:16 EDT: ANSRVR>OH6DL-11: N:RPRNET 4 Messages Sent
2019-04-22 10:40:28 EDT: G0RSQ>G4FKH: A,-102.2,-105.1,-106.4,B,-86.7,-96.5,-97.8,C,-100.6,-110.3,-111.5,D,-102,-104,-105,E,-109.1,-113,-114.2
2019-04-22 10:41:01 EDT: N7QME-2>N7QME: dew 42.6 42.9 42.9 44.4 43.0 41.3 42.9 39.7
2019-04-22 10:41:32 EDT: OH6DL-10>ANSRVR: K RPRNET
2019-04-22 10:41:38 EDT: DL7ATA>DB0TGO-14: /m
2019-04-22 10:41:50 EDT: DB0TS-10>DB0TS-9: T#001,000,000,000,000,000,00000000,Test
2019-04-22 10:41:54 EDT: SQ5IQK-5>SQ9MDD: mokrego dyngusa Vy73
2019-04-22 10:41:55 EDT: LU1HVK-1>APRS: lu1hvk@qsl.net Saludos de Leones - Cordoba AR...
2019-04-22 10:42:27 EDT: KM4KAW-9>KM4KAW: SitRep: 11.63744 69.35f
2019-04-22 10:42:54 EDT: SQ5IQK-5>SQ9MDD: mokrego dyngusa Vy73
2019-04-22 10:42:55 EDT: DB0LUH-1>LU1HVK-1: rejUISS54}
2019-04-22 10:43:18 EDT: DL7ATA>DB0TGO-14: /m
2019-04-22 10:43:41 EDT: EA1QV-5>EA1CIU-1: funciona la telemetria
2019-04-22 10:44:03 EDT: WP4JR>KP4RY-9: copiando saludos !
2019-04-22 10:44:29 EDT: PU5KOD-7>ISS: sat
2019-04-22 10:44:30 EDT: ISS>PU5KOD-7: AOS 5h05m (1950z) NE^8
2019-04-22 10:44:49 EDT: MTHOOD>N7QME: temps 49.4 99.1 36.8
2019-04-22 10:45:12 EDT: VK2GJ-2>VK2GJ-7: Directs=VK2RHR-1 VK2AMW-1
2019-04-22 10:45:37 EDT: PU5KOD-7>ISS: sat
2019-04-22 10:45:38 EDT: ISS>PU5KOD-7: AOS 5h04m (1950z) NE^8
2019-04-22 10:45:50 EDT: DF5KX-9>APRSPRO: REY1S1gtOSAgTVNHPzE1NTU5NDQzNDkuNjc0Mzc=
2019-04-22 10:46:26 EDT: CHCSTW>BOM_CANCL: 221138z,TSTORM,QLD_PW011>012
2019-04-22 10:46:26 EDT: MRWSTW>BOM_CANCL: 221138z,TSTORM,QLD_PW011>012
2019-04-22 10:46:26 EDT: CHCSTW>BOMCHC: Cancellation of Severe Thunderstorm Warning for Channel
2019-04-22 10:46:26 EDT: CHCSTW>BOMCHC: Country and Maranoa and Warrego forecast districts
2019-04-22 10:46:26 EDT: MRWSTW>BOMMRW: Cancellation of Severe Thunderstorm Warning for Channel
2019-04-22 10:46:26 EDT: MRWSTW>BOMMRW: Country and Maranoa and Warrego forecast districts
2019-04-22 10:47:12 EDT: VK2GJ-2>VK2GJ-7: Directs=VK2RHR-1 VK2AMW-1 VK2BWI-3
2019-04-22 10:47:27 EDT: KM4KAW-9>KM4KAW: SitRep: 11.7084 69.91f
2019-04-22 10:48:15 EDT: VK2GJ-5>VK2GJ-7: Directs=VK2RHR-1 VK2AMW-1 VK2BWI-3
2019-04-22 10:48:54 EDT: KIMMWW>BOM-CANCL: 221445z,WIND,WA_MW002>003
2019-04-22 10:49:00 EDT: PILMWW>BOM-CANCL: 221445z,WIND,WA_MW002>003
2019-04-22 10:49:06 EDT: CHCSTW>BOM-CANCL: 221448z,TSTORM,QLD_PW011>012
2019-04-22 10:49:12 EDT: MRWSTW>BOM-CANCL: 221448z,TSTORM,QLD_PW011>012
2019-04-22 10:49:18 EDT: ILLSTW>BOM_WARN: 221554z,TSTORM,NSW_PW006>007
2019-04-22 10:49:18 EDT: SCTSTW>BOM_WARN: 221554z,TSTORM,NSW_PW006>007
2019-04-22 10:49:18 EDT: SCTSTW>BOMSCT: Severe Thunderstorm Warning for Flash Flooding for
2019-04-22 10:49:18 EDT: SCTSTW>BOMSCT: Illawarra and South Coast forecast districts
2019-04-22 10:49:18 EDT: ILLSTW>BOMILL: Severe Thunderstorm Warning for Flash Flooding for
2019-04-22 10:49:18 EDT: ILLSTW>BOMILL: Illawarra and South Coast forecast districts
2019-04-22 10:49:22 EDT: KIMMWW>BOM_CANCL: 221600z,WIND,WA_MW002>003
2019-04-22 10:49:22 EDT: PILMWW>BOM_CANCL: 221600z,WIND,WA_MW002>003
2019-04-22 10:49:22 EDT: KIMMWW>BOMKIM: Cancellation of Wind Warning for coastal waters between
2019-04-22 10:49:23 EDT: KIMMWW>BOMKIM: Kuri Bay and Cape Preston for Monday
2019-04-22 10:49:23 EDT: PILMWW>BOMPIL: Cancellation of Wind Warning for coastal waters between
2019-04-22 10:49:23 EDT: PILMWW>BOMPIL: Kuri Bay and Cape Preston for Monday
2019-04-22 10:49:55 EDT: LU1HVK-1>APRS: lu1hvk@qsl.net Saludos de Leones - Cordoba AR...
< previous
FAQ · Blog · Discussion group · Linking to aprs.fi · AIS sites · Service status · Database statistics · Advertising on aprs.fi · Technical details · API · Change log · Planned changes · Credits and thanks · Terms Of Service · iPhone/iPad APRS